Alder Creek, OR

5:54 PM PDT on September 16, 2014 (GMT -0700)
Davis St - Gary St. | Change Station
CLOSE
Current Station
Personal Weather Station
Location: Sandy, OR
Elevation: 1037 ft
Nearby Weather Stations

Elev 1037 ft 45.39 °N, 122.25 °W | Updated 13 minutes ago

Clear
Clear
72.3 °F
Feels Like 77 °F
N
0.0
Wind Variable Wind from NE

Today
High -- | Low -- °F
--% Chance of Precip.
Yesterday
High -- | Low -- °F
Precip. -- in
6:48 AM 7:17 PM
Last Quarter, 41% visible
Pressure 29.85 in
Visibility 10.0 miles
Clouds Clear
Heat Index 77 °F
Dew Point 55 °F
Humidity 54%
Rainfall 0.00 in
Snow Depth 0 in , 0 in , 0 in
UV 2 out of 12
Pollen 2.70 out of 12
Air Quality Not available.
Flu Activity Not available.
METAR KTTD 162353Z VRB04KT 10SM CLR 25/11 A2985 RMK AO2 SLP108 T02500111 10250 20189 58018

More Conditions Fewer Conditions

Pressure 29.85 in
Visibility 10.0 miles
Clouds Clear
Heat Index 77 °F
Dew Point 55 °F
Humidity 54%
Rainfall 0.00 in
Snow Depth 0 in , 0 in , 0 in
UV 2 out of 12
Pollen 2.70 out of 12
Air Quality Not available.
Flu Activity Not available.
METAR KTTD 162353Z VRB04KT 10SM CLR 25/11 A2985 RMK AO2 SLP108 T02500111 10250 20189 58018

More Conditions Fewer Conditions

10-Day Weather Forecast

Almanac

Astronomy

Sep. 16, 2014 Rise Set
Actual Time 6:48 AM PDT 7:17 PM PDT
Civil Twilight 6:19 AM PDT 7:47 PM PDT
Nautical Twilight 5:43 AM PDT 8:22 PM PDT
Astronomical Twilight 5:07 AM PDT 8:58 PM PDT
Moon No Moon Rise 2:58 PM PDT (9/16)
Length of Visible Light 13h 28m
Length of Day
12h 29m
Tomorrow will be 3m 9s shorter.
Last Quarter, 41% of the Moon is Illuminated
Today
Last Quarter
Sep 24
New
Oct 1
First Quarter
Oct 8
Full
Oct 15
Last Quarter

Today's Extremes

State Highs State Lows

Community

WunderPhotos

Upload Photos

1,753,935 photos uploaded!

Nearby

Snow Depth

Station Depth Elevation
Hogg Pass 0 in 4760 ft
Daly Lake 0 in 3600 ft
Irish Taylor 0 in 5500 ft
Clear Lake 0 in 3500 ft
Three Creeks Meadow 0 in 5650 ft

Earthquake Activity

City Distance Mag. Time & Date
Morton, Washington 65 miles 3.0 5:43 AM PDT
2014-09-16
Minimum magnitude displayed is 2.5.

Coastal Water Temperatures

Place Temperature
No Stations Reporting

Nearby Weather Stations